sensor_id;sensor_type;location;lat;lon;timestamp;temperature;humidity
35962;DHT22;22044;48.298;10.008;2023-08-30T00:01:56;12.60;99.90
35962;DHT22;22044;48.298;10.008;2023-08-30T00:04:42;12.60;99.90
35962;DHT22;22044;48.298;10.008;2023-08-30T00:07:28;12.70;99.90
35962;DHT22;22044;48.298;10.008;2023-08-30T00:10:13;12.80;99.90
35962;DHT22;22044;48.298;10.008;2023-08-30T00:13:00;12.80;99.90
35962;DHT22;22044;48.298;10.008;2023-08-30T00:15:46;12.80;99.90
35962;DHT22;22044;48.298;10.008;2023-08-30T00:18:32;12.70;99.90
35962;DHT22;22044;48.298;10.008;2023-08-30T00:21:17;12.60;99.90
35962;DHT22;22044;48.298;10.008;2023-08-30T00:24:03;12.60;99.90
35962;DHT22;22044;48.298;10.008;2023-08-30T00:26:50;12.50;99.90
35962;DHT22;22044;48.298;10.008;2023-08-30T00:29:37;12.60;99.90
35962;DHT22;22044;48.298;10.008;2023-08-30T00:32:25;12.50;99.90
35962;DHT22;22044;48.298;10.008;2023-08-30T00:35:10;12.60;99.90
35962;DHT22;22044;48.298;10.008;2023-08-30T00:37:56;12.50;99.90
35962;DHT22;22044;48.298;10.008;2023-08-30T00:40:42;12.50;99.90
35962;DHT22;22044;48.298;10.008;2023-08-30T00:43:28;12.40;99.90
35962;DHT22;22044;48.298;10.008;2023-08-30T00:46:15;12.30;99.90
35962;DHT22;22044;48.298;10.008;2023-08-30T00:49:01;12.40;99.90
35962;DHT22;22044;48.298;10.008;2023-08-30T00:51:49;12.30;99.90
35962;DHT22;22044;48.298;10.008;2023-08-30T00:54:35;12.40;99.90
35962;DHT22;22044;48.298;10.008;2023-08-30T00:57:21;12.40;99.90
35962;DHT22;22044;48.298;10.008;2023-08-30T01:00:07;12.40;99.90
35962;DHT22;22044;48.298;10.008;2023-08-30T01:02:55;12.40;99.90
35962;DHT22;22044;48.298;10.008;2023-08-30T01:05:41;12.30;99.90
35962;DHT22;22044;48.298;10.008;2023-08-30T01:08:29;12.40;99.90
35962;DHT22;22044;48.298;10.008;2023-08-30T01:11:20;12.40;99.90
35962;DHT22;22044;48.298;10.008;2023-08-30T01:14:12;12.30;99.90
35962;DHT22;22044;48.298;10.008;2023-08-30T01:16:59;12.30;99.90
35962;DHT22;22044;48.298;10.008;2023-08-30T01:19:50;12.30;99.90
35962;DHT22;22044;48.298;10.008;2023-08-30T01:22:45;12.30;99.90
35962;DHT22;22044;48.298;10.008;2023-08-30T01:25:42;12.20;99.90
35962;DHT22;22044;48.298;10.008;2023-08-30T01:28:31;12.30;99.90
35962;DHT22;22044;48.298;10.008;2023-08-30T01:31:18;12.30;99.90
35962;DHT22;22044;48.298;10.008;2023-08-30T01:34:06;12.30;99.90
35962;DHT22;22044;48.298;10.008;2023-08-30T01:36:52;12.30;99.90
35962;DHT22;22044;48.298;10.008;2023-08-30T01:39:38;12.20;99.90
35962;DHT22;22044;48.298;10.008;2023-08-30T01:42:26;12.10;99.90
35962;DHT22;22044;48.298;10.008;2023-08-30T01:45:14;12.10;99.90
35962;DHT22;22044;48.298;10.008;2023-08-30T01:48:01;12.10;99.90
35962;DHT22;22044;48.298;10.008;2023-08-30T01:50:47;12.10;99.90
35962;DHT22;22044;48.298;10.008;2023-08-30T01:53:33;12.10;99.90
35962;DHT22;22044;48.298;10.008;2023-08-30T01:56:19;12.20;99.90
35962;DHT22;22044;48.298;10.008;2023-08-30T01:59:05;12.20;99.90
35962;DHT22;22044;48.298;10.008;2023-08-30T02:01:52;12.20;99.90
35962;DHT22;22044;48.298;10.008;2023-08-30T02:04:39;12.20;99.90
35962;DHT22;22044;48.298;10.008;2023-08-30T02:07:27;12.20;99.90
35962;DHT22;22044;48.298;10.008;2023-08-30T02:10:17;12.20;99.90
35962;DHT22;22044;48.298;10.008;2023-08-30T02:13:07;12.30;99.90
35962;DHT22;22044;48.298;10.008;2023-08-30T02:15:56;12.40;99.90
35962;DHT22;22044;48.298;10.008;2023-08-30T02:18:45;12.30;99.90
35962;DHT22;22044;48.298;10.008;2023-08-30T02:21:31;12.30;99.90
35962;DHT22;22044;48.298;10.008;2023-08-30T02:24:17;12.40;99.90
35962;DHT22;22044;48.298;10.008;2023-08-30T02:27:03;12.40;99.90
35962;DHT22;22044;48.298;10.008;2023-08-30T02:29:48;12.40;99.90
35962;DHT22;22044;48.298;10.008;2023-08-30T02:32:34;12.40;99.90
35962;DHT22;22044;48.298;10.008;2023-08-30T02:35:21;12.40;99.90
35962;DHT22;22044;48.298;10.008;2023-08-30T02:38:07;12.40;99.90
35962;DHT22;22044;48.298;10.008;2023-08-30T02:40:52;12.40;99.90
35962;DHT22;22044;48.298;10.008;2023-08-30T02:43:38;12.40;99.90
35962;DHT22;22044;48.298;10.008;2023-08-30T02:46:23;12.40;99.90
35962;DHT22;22044;48.298;10.008;2023-08-30T02:49:09;12.30;99.90
35962;DHT22;22044;48.298;10.008;2023-08-30T02:51:56;12.20;99.90
35962;DHT22;22044;48.298;10.008;2023-08-30T02:54:42;12.20;99.90
35962;DHT22;22044;48.298;10.008;2023-08-30T02:57:27;12.10;99.90
35962;DHT22;22044;48.298;10.008;2023-08-30T03:00:15;12.20;99.90
35962;DHT22;22044;48.298;10.008;2023-08-30T03:03:05;12.20;99.90
35962;DHT22;22044;48.298;10.008;2023-08-30T03:05:50;12.10;99.90
35962;DHT22;22044;48.298;10.008;2023-08-30T03:08:37;12.20;99.90
35962;DHT22;22044;48.298;10.008;2023-08-30T03:11:23;12.30;99.90
35962;DHT22;22044;48.298;10.008;2023-08-30T03:14:10;12.10;99.90
35962;DHT22;22044;48.298;10.008;2023-08-30T03:16:56;12.10;99.90
35962;DHT22;22044;48.298;10.008;2023-08-30T03:19:44;12.10;99.90
35962;DHT22;22044;48.298;10.008;2023-08-30T03:22:31;12.00;99.90
35962;DHT22;22044;48.298;10.008;2023-08-30T03:25:17;12.00;99.90
35962;DHT22;22044;48.298;10.008;2023-08-30T03:28:04;11.90;99.90
35962;DHT22;22044;48.298;10.008;2023-08-30T03:30:52;11.80;99.90
35962;DHT22;22044;48.298;10.008;2023-08-30T03:33:38;11.70;99.90
35962;DHT22;22044;48.298;10.008;2023-08-30T03:36:25;11.60;99.90
35962;DHT22;22044;48.298;10.008;2023-08-30T03:39:11;11.60;99.90
35962;DHT22;22044;48.298;10.008;2023-08-30T03:41:59;11.60;99.90
35962;DHT22;22044;48.298;10.008;2023-08-30T03:44:45;11.60;99.90
35962;DHT22;22044;48.298;10.008;2023-08-30T03:47:31;11.70;99.90
35962;DHT22;22044;48.298;10.008;2023-08-30T03:50:16;11.70;99.90
35962;DHT22;22044;48.298;10.008;2023-08-30T03:53:02;11.70;99.90
35962;DHT22;22044;48.298;10.008;2023-08-30T03:55:47;11.70;99.90
35962;DHT22;22044;48.298;10.008;2023-08-30T03:58:35;11.70;99.90
35962;DHT22;22044;48.298;10.008;2023-08-30T04:01:22;11.70;99.90
35962;DHT22;22044;48.298;10.008;2023-08-30T04:04:08;11.70;99.90
35962;DHT22;22044;48.298;10.008;2023-08-30T04:06:54;11.90;99.90
35962;DHT22;22044;48.298;10.008;2023-08-30T04:09:40;12.00;99.90
35962;DHT22;22044;48.298;10.008;2023-08-30T04:12:25;12.00;99.90
35962;DHT22;22044;48.298;10.008;2023-08-30T04:15:13;12.10;99.90
35962;DHT22;22044;48.298;10.008;2023-08-30T04:17:59;12.00;99.90
35962;DHT22;22044;48.298;10.008;2023-08-30T04:20:46;11.90;99.90
35962;DHT22;22044;48.298;10.008;2023-08-30T04:23:32;11.90;99.90
35962;DHT22;22044;48.298;10.008;2023-08-30T04:26:18;11.90;99.90
35962;DHT22;22044;48.298;10.008;2023-08-30T04:29:03;12.10;99.90
35962;DHT22;22044;48.298;10.008;2023-08-30T04:31:50;12.00;99.90
35962;DHT22;22044;48.298;10.008;2023-08-30T04:34:36;12.00;99.90
35962;DHT22;22044;48.298;10.008;2023-08-30T04:37:21;12.10;99.90
35962;DHT22;22044;48.298;10.008;2023-08-30T04:40:08;12.20;99.90
35962;DHT22;22044;48.298;10.008;2023-08-30T04:42:54;12.30;99.90
35962;DHT22;22044;48.298;10.008;2023-08-30T04:45:40;12.30;99.90
35962;DHT22;22044;48.298;10.008;2023-08-30T04:48:28;12.30;99.90
35962;DHT22;22044;48.298;10.008;2023-08-30T04:51:13;12.40;99.90
35962;DHT22;22044;48.298;10.008;2023-08-30T04:53:59;12.40;99.90
35962;DHT22;22044;48.298;10.008;2023-08-30T04:56:45;12.40;99.90
35962;DHT22;22044;48.298;10.008;2023-08-30T04:59:31;12.40;99.90
35962;DHT22;22044;48.298;10.008;2023-08-30T05:02:17;12.40;99.90
35962;DHT22;22044;48.298;10.008;2023-08-30T05:05:19;12.50;99.90
35962;DHT22;22044;48.298;10.008;2023-08-30T05:08:05;12.60;99.90
35962;DHT22;22044;48.298;10.008;2023-08-30T05:10:53;12.60;99.90
35962;DHT22;22044;48.298;10.008;2023-08-30T05:13:39;12.60;99.90
35962;DHT22;22044;48.298;10.008;2023-08-30T05:16:25;12.70;99.90
35962;DHT22;22044;48.298;10.008;2023-08-30T05:19:11;12.70;99.90
35962;DHT22;22044;48.298;10.008;2023-08-30T05:21:58;12.80;99.90
35962;DHT22;22044;48.298;10.008;2023-08-30T05:24:43;12.70;99.90
35962;DHT22;22044;48.298;10.008;2023-08-30T05:27:29;12.70;99.90
35962;DHT22;22044;48.298;10.008;2023-08-30T05:30:15;12.60;99.90
35962;DHT22;22044;48.298;10.008;2023-08-30T05:33:01;12.50;99.90
35962;DHT22;22044;48.298;10.008;2023-08-30T05:36:04;12.50;99.90
35962;DHT22;22044;48.298;10.008;2023-08-30T05:39:15;12.60;99.90
35962;DHT22;22044;48.298;10.008;2023-08-30T05:42:05;12.70;99.90
35962;DHT22;22044;48.298;10.008;2023-08-30T05:44:50;12.70;99.90
35962;DHT22;22044;48.298;10.008;2023-08-30T05:47:36;12.60;99.90
35962;DHT22;22044;48.298;10.008;2023-08-30T05:50:21;12.60;99.90
35962;DHT22;22044;48.298;10.008;2023-08-30T05:53:07;12.50;99.90
35962;DHT22;22044;48.298;10.008;2023-08-30T05:55:54;12.40;99.90
35962;DHT22;22044;48.298;10.008;2023-08-30T05:58:40;12.30;99.90
35962;DHT22;22044;48.298;10.008;2023-08-30T06:01:25;12.30;99.90
35962;DHT22;22044;48.298;10.008;2023-08-30T06:04:11;12.40;99.90
35962;DHT22;22044;48.298;10.008;2023-08-30T06:06:57;12.30;99.90
35962;DHT22;22044;48.298;10.008;2023-08-30T06:09:44;12.40;99.90
35962;DHT22;22044;48.298;10.008;2023-08-30T06:12:31;12.40;99.90
35962;DHT22;22044;48.298;10.008;2023-08-30T06:15:16;12.40;99.90
35962;DHT22;22044;48.298;10.008;2023-08-30T06:18:02;12.50;99.90
35962;DHT22;22044;48.298;10.008;2023-08-30T06:20:49;12.50;99.90
35962;DHT22;22044;48.298;10.008;2023-08-30T06:23:37;12.60;99.90
35962;DHT22;22044;48.298;10.008;2023-08-30T06:26:23;12.50;99.90
35962;DHT22;22044;48.298;10.008;2023-08-30T06:29:10;12.50;99.90
35962;DHT22;22044;48.298;10.008;2023-08-30T06:31:55;12.60;99.90
35962;DHT22;22044;48.298;10.008;2023-08-30T06:34:41;12.60;99.90
35962;DHT22;22044;48.298;10.008;2023-08-30T06:37:26;12.80;99.90
35962;DHT22;22044;48.298;10.008;2023-08-30T06:40:12;12.90;99.90
35962;DHT22;22044;48.298;10.008;2023-08-30T06:42:58;13.00;99.90
35962;DHT22;22044;48.298;10.008;2023-08-30T06:45:45;13.00;99.90
35962;DHT22;22044;48.298;10.008;2023-08-30T06:48:31;13.10;99.90
35962;DHT22;22044;48.298;10.008;2023-08-30T06:51:17;13.10;99.90
35962;DHT22;22044;48.298;10.008;2023-08-30T06:54:03;13.20;99.90
35962;DHT22;22044;48.298;10.008;2023-08-30T06:56:57;13.20;99.90
35962;DHT22;22044;48.298;10.008;2023-08-30T06:59:43;13.20;99.90
35962;DHT22;22044;48.298;10.008;2023-08-30T07:02:30;13.20;99.90
35962;DHT22;22044;48.298;10.008;2023-08-30T07:05:15;13.10;99.90
35962;DHT22;22044;48.298;10.008;2023-08-30T07:08:01;13.20;99.90
35962;DHT22;22044;48.298;10.008;2023-08-30T07:10:47;13.20;99.90
35962;DHT22;22044;48.298;10.008;2023-08-30T07:13:32;13.30;99.90
35962;DHT22;22044;48.298;10.008;2023-08-30T07:16:18;13.30;99.90
35962;DHT22;22044;48.298;10.008;2023-08-30T07:19:05;13.20;99.90
35962;DHT22;22044;48.298;10.008;2023-08-30T07:21:50;13.30;99.90
35962;DHT22;22044;48.298;10.008;2023-08-30T07:24:36;13.30;99.90
35962;DHT22;22044;48.298;10.008;2023-08-30T07:27:22;13.20;99.90
35962;DHT22;22044;48.298;10.008;2023-08-30T07:30:08;13.20;99.90
35962;DHT22;22044;48.298;10.008;2023-08-30T07:32:54;13.30;99.90
35962;DHT22;22044;48.298;10.008;2023-08-30T07:35:41;13.30;99.90
35962;DHT22;22044;48.298;10.008;2023-08-30T07:38:26;13.20;99.90
35962;DHT22;22044;48.298;10.008;2023-08-30T07:41:12;13.30;99.90
35962;DHT22;22044;48.298;10.008;2023-08-30T07:43:58;13.30;99.90
35962;DHT22;22044;48.298;10.008;2023-08-30T07:46:43;13.40;99.90
35962;DHT22;22044;48.298;10.008;2023-08-30T07:49:29;13.40;99.90
35962;DHT22;22044;48.298;10.008;2023-08-30T07:52:16;13.50;99.90
35962;DHT22;22044;48.298;10.008;2023-08-30T07:55:02;13.70;99.90
35962;DHT22;22044;48.298;10.008;2023-08-30T07:57:47;13.70;99.90
35962;DHT22;22044;48.298;10.008;2023-08-30T08:00:33;13.60;99.90
35962;DHT22;22044;48.298;10.008;2023-08-30T08:03:21;13.70;99.90
35962;DHT22;22044;48.298;10.008;2023-08-30T08:06:07;13.80;99.90
35962;DHT22;22044;48.298;10.008;2023-08-30T08:08:53;13.80;99.90
35962;DHT22;22044;48.298;10.008;2023-08-30T08:11:39;13.80;99.90
35962;DHT22;22044;48.298;10.008;2023-08-30T08:14:27;13.80;99.90
35962;DHT22;22044;48.298;10.008;2023-08-30T08:17:13;13.80;99.90
35962;DHT22;22044;48.298;10.008;2023-08-30T08:19:59;13.80;99.90
35962;DHT22;22044;48.298;10.008;2023-08-30T08:22:45;13.80;99.90
35962;DHT22;22044;48.298;10.008;2023-08-30T08:25:32;14.00;99.90
35962;DHT22;22044;48.298;10.008;2023-08-30T08:28:17;14.00;99.90
35962;DHT22;22044;48.298;10.008;2023-08-30T08:31:03;14.00;99.90
35962;DHT22;22044;48.298;10.008;2023-08-30T08:33:51;14.10;99.90
35962;DHT22;22044;48.298;10.008;2023-08-30T08:36:37;13.80;99.90
35962;DHT22;22044;48.298;10.008;2023-08-30T08:39:23;13.80;99.90
35962;DHT22;22044;48.298;10.008;2023-08-30T08:42:10;13.70;99.90
35962;DHT22;22044;48.298;10.008;2023-08-30T08:44:57;13.90;99.90
35962;DHT22;22044;48.298;10.008;2023-08-30T08:47:45;14.00;99.90
35962;DHT22;22044;48.298;10.008;2023-08-30T08:50:31;13.80;99.90
35962;DHT22;22044;48.298;10.008;2023-08-30T08:53:16;14.00;99.90
35962;DHT22;22044;48.298;10.008;2023-08-30T08:56:02;14.30;99.90
35962;DHT22;22044;48.298;10.008;2023-08-30T08:58:50;14.40;99.90
35962;DHT22;22044;48.298;10.008;2023-08-30T09:01:36;14.40;99.90
35962;DHT22;22044;48.298;10.008;2023-08-30T09:04:24;14.30;99.90
35962;DHT22;22044;48.298;10.008;2023-08-30T09:07:09;14.10;99.90
35962;DHT22;22044;48.298;10.008;2023-08-30T09:09:55;14.30;99.90
35962;DHT22;22044;48.298;10.008;2023-08-30T09:12:41;14.30;99.90
35962;DHT22;22044;48.298;10.008;2023-08-30T09:15:32;14.50;99.90
35962;DHT22;22044;48.298;10.008;2023-08-30T09:18:18;14.70;99.90
35962;DHT22;22044;48.298;10.008;2023-08-30T09:21:07;14.80;99.90
35962;DHT22;22044;48.298;10.008;2023-08-30T09:24:00;14.60;99.90
35962;DHT22;22044;48.298;10.008;2023-08-30T09:26:47;14.60;99.90
35962;DHT22;22044;48.298;10.008;2023-08-30T09:29:33;14.60;99.90
35962;DHT22;22044;48.298;10.008;2023-08-30T09:32:22;14.70;99.90
35962;DHT22;22044;48.298;10.008;2023-08-30T09:35:08;14.50;99.90
35962;DHT22;22044;48.298;10.008;2023-08-30T09:37:54;14.80;99.90
35962;DHT22;22044;48.298;10.008;2023-08-30T09:40:39;14.90;99.90
35962;DHT22;22044;48.298;10.008;2023-08-30T09:43:25;15.10;99.90
35962;DHT22;22044;48.298;10.008;2023-08-30T09:46:11;15.20;99.90
35962;DHT22;22044;48.298;10.008;2023-08-30T09:48:58;15.20;99.90
35962;DHT22;22044;48.298;10.008;2023-08-30T09:51:44;15.40;99.90
35962;DHT22;22044;48.298;10.008;2023-08-30T09:54:33;15.50;99.90
35962;DHT22;22044;48.298;10.008;2023-08-30T09:57:21;15.60;99.90
35962;DHT22;22044;48.298;10.008;2023-08-30T10:00:08;15.40;99.90
35962;DHT22;22044;48.298;10.008;2023-08-30T10:02:58;15.30;99.90
35962;DHT22;22044;48.298;10.008;2023-08-30T10:05:45;15.40;99.90
35962;DHT22;22044;48.298;10.008;2023-08-30T10:08:34;15.70;99.90
35962;DHT22;22044;48.298;10.008;2023-08-30T10:11:21;15.60;99.90
35962;DHT22;22044;48.298;10.008;2023-08-30T10:14:07;15.80;99.90
35962;DHT22;22044;48.298;10.008;2023-08-30T10:17:01;16.00;99.90
35962;DHT22;22044;48.298;10.008;2023-08-30T10:19:47;16.00;99.90
35962;DHT22;22044;48.298;10.008;2023-08-30T10:22:37;16.00;99.90
35962;DHT22;22044;48.298;10.008;2023-08-30T10:25:27;16.10;99.90
35962;DHT22;22044;48.298;10.008;2023-08-30T10:28:15;16.20;99.90
35962;DHT22;22044;48.298;10.008;2023-08-30T10:31:01;16.40;99.90
35962;DHT22;22044;48.298;10.008;2023-08-30T10:33:48;16.40;99.90
35962;DHT22;22044;48.298;10.008;2023-08-30T10:36:34;16.40;99.90
35962;DHT22;22044;48.298;10.008;2023-08-30T10:39:32;16.40;99.90
35962;DHT22;22044;48.298;10.008;2023-08-30T10:42:23;16.30;99.90
35962;DHT22;22044;48.298;10.008;2023-08-30T10:45:09;16.10;99.90
35962;DHT22;22044;48.298;10.008;2023-08-30T10:47:55;16.00;99.90
35962;DHT22;22044;48.298;10.008;2023-08-30T10:50:41;16.20;99.90
35962;DHT22;22044;48.298;10.008;2023-08-30T10:53:29;16.40;99.90
35962;DHT22;22044;48.298;10.008;2023-08-30T10:56:16;16.70;99.90
35962;DHT22;22044;48.298;10.008;2023-08-30T13:40:01;19.20;99.90
35962;DHT22;22044;48.298;10.008;2023-08-30T13:42:50;18.80;99.90
35962;DHT22;22044;48.298;10.008;2023-08-30T13:45:35;18.90;99.90
35962;DHT22;22044;48.298;10.008;2023-08-30T13:48:21;19.20;99.90
35962;DHT22;22044;48.298;10.008;2023-08-30T13:51:07;19.20;99.90
35962;DHT22;22044;48.298;10.008;2023-08-30T13:53:53;19.40;99.90
35962;DHT22;22044;48.298;10.008;2023-08-30T13:56:40;19.70;99.90
35962;DHT22;22044;48.298;10.008;2023-08-30T13:59:26;19.40;99.90
35962;DHT22;22044;48.298;10.008;2023-08-30T14:02:12;19.00;99.90
35962;DHT22;22044;48.298;10.008;2023-08-30T14:04:58;18.70;99.90
35962;DHT22;22044;48.298;10.008;2023-08-30T14:07:43;18.60;99.90
35962;DHT22;22044;48.298;10.008;2023-08-30T14:10:29;18.70;99.90
35962;DHT22;22044;48.298;10.008;2023-08-30T14:13:16;18.90;99.90
35962;DHT22;22044;48.298;10.008;2023-08-30T14:16:02;19.30;99.90
35962;DHT22;22044;48.298;10.008;2023-08-30T14:18:48;19.40;99.90
35962;DHT22;22044;48.298;10.008;2023-08-30T14:21:34;19.40;99.90
35962;DHT22;22044;48.298;10.008;2023-08-30T14:24:19;19.70;99.90
35962;DHT22;22044;48.298;10.008;2023-08-30T14:27:05;19.50;99.90
35962;DHT22;22044;48.298;10.008;2023-08-30T14:29:53;19.70;99.90
35962;DHT22;22044;48.298;10.008;2023-08-30T14:32:38;19.80;99.90
35962;DHT22;22044;48.298;10.008;2023-08-30T14:35:24;19.90;99.90
35962;DHT22;22044;48.298;10.008;2023-08-30T14:38:10;19.90;99.90
35962;DHT22;22044;48.298;10.008;2023-08-30T14:40:56;19.90;99.90
35962;DHT22;22044;48.298;10.008;2023-08-30T14:43:42;20.00;99.90
35962;DHT22;22044;48.298;10.008;2023-08-30T14:46:29;20.00;99.90
35962;DHT22;22044;48.298;10.008;2023-08-30T14:49:14;19.90;99.90
35962;DHT22;22044;48.298;10.008;2023-08-30T14:52:00;19.80;99.90
35962;DHT22;22044;48.298;10.008;2023-08-30T14:54:46;19.80;99.90
35962;DHT22;22044;48.298;10.008;2023-08-30T14:57:31;19.60;99.90
35962;DHT22;22044;48.298;10.008;2023-08-30T15:00:18;19.50;99.90
35962;DHT22;22044;48.298;10.008;2023-08-30T15:03:05;19.20;99.90
35962;DHT22;22044;48.298;10.008;2023-08-30T15:05:53;19.20;99.90
35962;DHT22;22044;48.298;10.008;2023-08-30T15:08:39;19.00;99.90
35962;DHT22;22044;48.298;10.008;2023-08-30T15:11:25;19.10;99.90
35962;DHT22;22044;48.298;10.008;2023-08-30T15:14:11;18.90;99.90
35962;DHT22;22044;48.298;10.008;2023-08-30T15:16:56;18.80;99.90
35962;DHT22;22044;48.298;10.008;2023-08-30T15:19:43;18.90;99.90
35962;DHT22;22044;48.298;10.008;2023-08-30T15:22:29;18.90;99.90
35962;DHT22;22044;48.298;10.008;2023-08-30T15:25:16;18.80;99.90
35962;DHT22;22044;48.298;10.008;2023-08-30T15:28:02;18.80;99.90
35962;DHT22;22044;48.298;10.008;2023-08-30T15:30:48;18.70;99.90
35962;DHT22;22044;48.298;10.008;2023-08-30T15:33:35;18.70;99.90
35962;DHT22;22044;48.298;10.008;2023-08-30T15:36:22;18.70;99.90
35962;DHT22;22044;48.298;10.008;2023-08-30T15:39:07;18.80;99.90
35962;DHT22;22044;48.298;10.008;2023-08-30T15:41:53;18.80;99.90
35962;DHT22;22044;48.298;10.008;2023-08-30T15:44:38;18.70;99.90
35962;DHT22;22044;48.298;10.008;2023-08-30T15:47:24;18.60;99.90
35962;DHT22;22044;48.298;10.008;2023-08-30T15:50:09;18.60;99.90
35962;DHT22;22044;48.298;10.008;2023-08-30T15:52:56;18.50;99.90
35962;DHT22;22044;48.298;10.008;2023-08-30T15:55:42;18.40;99.90
35962;DHT22;22044;48.298;10.008;2023-08-30T15:58:27;18.40;99.90
35962;DHT22;22044;48.298;10.008;2023-08-30T16:01:13;18.40;99.90
35962;DHT22;22044;48.298;10.008;2023-08-30T16:04:00;18.40;99.90
35962;DHT22;22044;48.298;10.008;2023-08-30T16:06:45;18.40;99.90
35962;DHT22;22044;48.298;10.008;2023-08-30T16:09:32;18.40;99.90
35962;DHT22;22044;48.298;10.008;2023-08-30T16:12:18;18.40;99.90
35962;DHT22;22044;48.298;10.008;2023-08-30T16:15:05;18.30;99.90
35962;DHT22;22044;48.298;10.008;2023-08-30T16:17:50;18.20;99.90
35962;DHT22;22044;48.298;10.008;2023-08-30T16:20:36;18.20;99.90
35962;DHT22;22044;48.298;10.008;2023-08-30T16:23:22;18.10;99.90
35962;DHT22;22044;48.298;10.008;2023-08-30T16:26:09;18.00;99.90
35962;DHT22;22044;48.298;10.008;2023-08-30T16:28:55;17.90;99.90
35962;DHT22;22044;48.298;10.008;2023-08-30T16:31:41;17.90;99.90
35962;DHT22;22044;48.298;10.008;2023-08-30T16:34:27;17.90;99.90
35962;DHT22;22044;48.298;10.008;2023-08-30T16:37:12;17.90;99.90
35962;DHT22;22044;48.298;10.008;2023-08-30T16:39:58;17.80;99.90
35962;DHT22;22044;48.298;10.008;2023-08-30T16:42:45;17.70;99.90
35962;DHT22;22044;48.298;10.008;2023-08-30T16:45:30;17.70;99.90
35962;DHT22;22044;48.298;10.008;2023-08-30T16:48:16;17.70;99.90
35962;DHT22;22044;48.298;10.008;2023-08-30T16:51:02;17.70;99.90
35962;DHT22;22044;48.298;10.008;2023-08-30T16:53:48;17.60;99.90
35962;DHT22;22044;48.298;10.008;2023-08-30T16:56:34;17.50;99.90
35962;DHT22;22044;48.298;10.008;2023-08-30T16:59:21;17.60;99.90
35962;DHT22;22044;48.298;10.008;2023-08-30T17:02:06;17.60;99.90
35962;DHT22;22044;48.298;10.008;2023-08-30T17:04:52;17.60;99.90
35962;DHT22;22044;48.298;10.008;2023-08-30T17:07:37;17.60;99.90
35962;DHT22;22044;48.298;10.008;2023-08-30T17:10:23;17.60;99.90
35962;DHT22;22044;48.298;10.008;2023-08-30T17:13:09;17.50;99.90
35962;DHT22;22044;48.298;10.008;2023-08-30T17:15:56;17.50;99.90
35962;DHT22;22044;48.298;10.008;2023-08-30T17:18:43;17.50;99.90
35962;DHT22;22044;48.298;10.008;2023-08-30T17:21:29;17.40;99.90
35962;DHT22;22044;48.298;10.008;2023-08-30T17:24:15;17.50;99.90
35962;DHT22;22044;48.298;10.008;2023-08-30T17:27:00;17.40;99.90
35962;DHT22;22044;48.298;10.008;2023-08-30T17:29:48;17.50;99.90
35962;DHT22;22044;48.298;10.008;2023-08-30T17:32:35;17.00;99.90
35962;DHT22;22044;48.298;10.008;2023-08-30T17:35:21;16.80;99.90
35962;DHT22;22044;48.298;10.008;2023-08-30T17:38:06;16.70;99.90
35962;DHT22;22044;48.298;10.008;2023-08-30T17:40:52;16.70;99.90
35962;DHT22;22044;48.298;10.008;2023-08-30T17:43:38;16.70;99.90
35962;DHT22;22044;48.298;10.008;2023-08-30T17:46:23;16.60;99.90
35962;DHT22;22044;48.298;10.008;2023-08-30T17:49:12;16.40;99.90
35962;DHT22;22044;48.298;10.008;2023-08-30T17:51:57;16.40;99.90
35962;DHT22;22044;48.298;10.008;2023-08-30T17:54:43;16.40;99.90
35962;DHT22;22044;48.298;10.008;2023-08-30T17:57:29;16.40;99.90
35962;DHT22;22044;48.298;10.008;2023-08-30T18:00:15;16.50;99.90
35962;DHT22;22044;48.298;10.008;2023-08-30T18:03:04;16.50;99.90
35962;DHT22;22044;48.298;10.008;2023-08-30T18:05:57;16.50;99.90
35962;DHT22;22044;48.298;10.008;2023-08-30T18:08:43;16.50;99.90
35962;DHT22;22044;48.298;10.008;2023-08-30T18:11:30;16.50;99.90
35962;DHT22;22044;48.298;10.008;2023-08-30T18:14:16;16.50;99.90
35962;DHT22;22044;48.298;10.008;2023-08-30T18:17:01;16.50;99.90
35962;DHT22;22044;48.298;10.008;2023-08-30T18:19:48;16.50;99.90
35962;DHT22;22044;48.298;10.008;2023-08-30T18:22:35;16.50;99.90
35962;DHT22;22044;48.298;10.008;2023-08-30T18:25:20;16.50;99.90
35962;DHT22;22044;48.298;10.008;2023-08-30T18:28:06;16.40;99.90
35962;DHT22;22044;48.298;10.008;2023-08-30T18:30:51;16.50;99.90
35962;DHT22;22044;48.298;10.008;2023-08-30T18:33:37;16.40;99.90
35962;DHT22;22044;48.298;10.008;2023-08-30T18:36:22;16.30;99.90
35962;DHT22;22044;48.298;10.008;2023-08-30T18:39:09;16.30;99.90
35962;DHT22;22044;48.298;10.008;2023-08-30T18:41:55;16.20;99.90
35962;DHT22;22044;48.298;10.008;2023-08-30T18:44:40;16.20;99.90
35962;DHT22;22044;48.298;10.008;2023-08-30T18:47:27;16.20;99.90
35962;DHT22;22044;48.298;10.008;2023-08-30T18:50:14;16.20;99.90
35962;DHT22;22044;48.298;10.008;2023-08-30T18:52:59;16.20;99.90
35962;DHT22;22044;48.298;10.008;2023-08-30T18:55:46;16.10;99.90
35962;DHT22;22044;48.298;10.008;2023-08-30T18:58:32;16.00;99.90
35962;DHT22;22044;48.298;10.008;2023-08-30T19:01:17;16.00;99.90
35962;DHT22;22044;48.298;10.008;2023-08-30T19:04:03;16.00;99.90
35962;DHT22;22044;48.298;10.008;2023-08-30T19:06:49;15.90;99.90
35962;DHT22;22044;48.298;10.008;2023-08-30T19:09:36;15.90;99.90
35962;DHT22;22044;48.298;10.008;2023-08-30T19:12:23;15.80;99.90
35962;DHT22;22044;48.298;10.008;2023-08-30T19:15:09;15.60;99.90
35962;DHT22;22044;48.298;10.008;2023-08-30T19:17:55;15.60;99.90
35962;DHT22;22044;48.298;10.008;2023-08-30T19:20:40;15.40;99.90
35962;DHT22;22044;48.298;10.008;2023-08-30T19:23:26;15.20;99.90
35962;DHT22;22044;48.298;10.008;2023-08-30T19:26:12;15.00;99.90
35962;DHT22;22044;48.298;10.008;2023-08-30T19:28:59;14.90;99.90
35962;DHT22;22044;48.298;10.008;2023-08-30T19:31:45;14.80;99.90
35962;DHT22;22044;48.298;10.008;2023-08-30T19:34:30;14.70;99.90
35962;DHT22;22044;48.298;10.008;2023-08-30T19:37:16;14.70;99.90
35962;DHT22;22044;48.298;10.008;2023-08-30T19:40:03;14.80;99.90
35962;DHT22;22044;48.298;10.008;2023-08-30T19:42:52;14.70;99.90
35962;DHT22;22044;48.298;10.008;2023-08-30T19:45:39;14.60;99.90
35962;DHT22;22044;48.298;10.008;2023-08-30T19:48:24;14.60;99.90
35962;DHT22;22044;48.298;10.008;2023-08-30T19:51:10;14.40;99.90
35962;DHT22;22044;48.298;10.008;2023-08-30T19:53:55;14.40;99.90
35962;DHT22;22044;48.298;10.008;2023-08-30T19:56:41;14.30;99.90